AirNav   TITAN Aviation Fuels
 
 1406 users online  

9A0 Lumpkin County-Wimpys Airport
Dahlonega, Georgia, USA

GOING TO DAHLONEGA?


FAA INFORMATION EFFECTIVE 01 DECEMBER 2022

Location

FAA Identifier: 9A0
Lat/Long: 34-34-59.1300N 084-01-11.8500W
34-34.985500N 084-01.197500W
34.5830917,-84.0199583
(estimated)
Elevation: 1328.8 ft. / 405 m (estimated)
Variation: 03W (1985)
From city: 3 miles NW of DAHLONEGA, GA
Time zone: UTC -5 (UTC -4 during Daylight Saving Time)
Zip code: 30533

Airport Operations

Airport use: Open to the public
Activation date: 08/1956
Control tower: no
ARTCC: ATLANTA CENTER
FSS: MACON FLIGHT SERVICE STATION
NOTAMs facility: MCN (NOTAM-D service available)
Attendance: UNATNDD
Wind indicator: yes
Segmented circle: no

Airport Communications

CTAF: 122.9
WX AWOS-3PT at DZJ (16 nm N): 119.325 (706-745-9271)

Nearby radio navigation aids

VOR radial/distance  VOR name  Freq  Var
HRSr193/22.2HARRIS VORTAC109.8000E
ODFr259/36.3FOOTHILLS VOR/DME113.4000E

 
NDB name  Hdg/Dist  Freq  Var  ID
FLOWERY BRANCH349/23.536503WFKV ..-. -.- ...-
CHERO054/30.541505WDJD -.. .--- -..

Airport Services

Fuel available: 100LL
100LL:24 HOUR SELF SERVE WITH CREDIT CARD.
Parking: tiedowns
Airframe service: NONE
Powerplant service: NONE
Bottled oxygen: NONE
Bulk oxygen: NONE

Runway Information

Runway 15/33

Dimensions: 3024 x 50 ft. / 922 x 15 m
Surface: asphalt, in good condition
Weight bearing capacity: 
Single wheel: 12.0
RUNWAY 15  RUNWAY 33
Latitude: 34-35.201667N34-34.769333N
Longitude: 084-01.347667W084-01.047333W
Elevation: 1328.8 ft.1308.2 ft.
Traffic pattern: leftleft
Runway heading: 153 magnetic, 150 true333 magnetic, 330 true
Displaced threshold: 681 ft.693 ft.
Markings: basic, in fair conditionbasic, in fair condition
Obstructions: 173 ft. trees, 1411 ft. from runway, 225 ft. left of centerline, 7:1 slope to clear
13:1 APCH SLP TO DSPLCD THLD, TREES 2469 FT OUT & 120 FT LEFT.
113 ft. trees, 1330 ft. from runway, 200 ft. left of centerline, 10:1 slope to clear
APCH SLOPE 25:1 TO DSPLCD THLD, TREELINE 2,325 FROM DSPLCD THLD.

Airport Ownership and Management from official FAA records

Ownership: Publicly-owned
Owner: LUMPKIN COUNTY AIRPORT AUTHORITY
99 COURTHOUSE HILL, SUITE H
DAHLONEGA, GA 30533
Phone (706) 265-0284
Manager: LARRY REITER
99 COURTHOUSE HILL, SUITE H
DAHLONEGA, GA 30533
Phone 706-482-2586
AIRPORT ADDRESS: 1682 CAMP WAHSEGA RD

Airport Operational Statistics

Aircraft based on the field: 21
Single engine airplanes: 21
    
Aircraft operations: avg 107/week *
54% local general aviation
36% transient general aviation
11% military
* for 12-month period ending 31 December 2020

Additional Remarks

ARPT CLSD TO ACFT AT NIGHT, DAYTIME USE ONLY.
DEER & WILDLIFE ON OR INVOF ARPT.
FOR CD CTC ATLANTA ARTCC AT 770-210-7692.

Instrument Procedures

There are no published instrument procedures at 9A0.

Some nearby airports with instrument procedures:

KDZJ - Blairsville Airport (16 nm N)
KGVL - Lee Gilmer Memorial Airport (21 nm SE)
KJZP - Pickens County Airport (23 nm W)
KAJR - Habersham County Airport (23 nm E)
49A - Gilmer County Airport (25 nm W)
 
Loc | Ops | Rwys | IFR | FBO | Links
Com | Nav | Svcs | Stats | Notes
Area around 9A0 (Lumpkin County-Wimpys Airport)
 
Road maps at: MapQuest Bing Google
 
Aerial photo
WARNING: Photo may not be current or correct
Aerial photo of 9A0 (Lumpkin County-Wimpys Airport)
Photo by Jerry Morris
Photo taken 17-Sep-2015
looking south.

Do you have a better or more recent aerial photo of Lumpkin County-Wimpys Airport that you would like to share? If so, please send us your photo.

 
Sectional chart

 
Airport distance calculator
Flying to Lumpkin County-Wimpys Airport? Find the distance to fly.

From to 9A0

Sunrise and sunset
Times for 09-Dec-2022
 Local
(UTC-5)
 Zulu
(UTC)
Morning civil twilight07:0512:05
Sunrise07:3212:32
Sunset17:2522:25
Evening civil twilight17:5222:52

Current date and time
Zulu (UTC)  09-Dec-2022 18:36:43
Local (UTC-5)  09-Dec-2022 13:36:43
 
METAR
KDZJ 
16nm N 
091815Z AUTO 12004KT 2 1/2SM RA BR SCT009 SCT020 OVC060 14/14 A3011 RMK AO2 VIS 2V3 1/2 P0003 T01420139
KGVL 
21nm SE 
091753Z AUTO 08008KT 5SM -RA BR OVC004 14/13 A3014 RMK AO2 CIG 003V007 SLP199 P0004 60008 T01390128 10167 20139 58011
KAJR 
23nm E 
091815Z AUTO 03007KT 10SM -RA OVC005 14/14 A3013 RMK AO2 T01350135
K49A 
25nm W 
091815Z AUTO 00000KT 3SM -RA BR OVC004 16/16 A3011 RMK AO2
KCNI 
26nm SW 
091815Z AUTO 08004KT 1 3/4SM +RA BR OVC004 14/14 A3013 RMK AO2 VIS 1V3 1/2 T01430139
TAF
KPDK 
44nm S 
091720Z 0918/1018 VRB03KT 2SM -SHRA BR OVC005 FM100000 VRB03KT 3SM -DZ BR OVC004 FM100500 VRB03KT 2SM BR OVC004 FM101100 00000KT 1/2SM FG OVC004 FM101400 08004KT 2SM BR OVC004
KRYY 
45nm SW 
091720Z 0918/1018 VRB03KT 3SM -SHRA BR OVC005 FM100000 09004KT 3SM -DZ BR OVC004 FM101100 VRB03KT 1/2SM FG OVC005 FM101700 11005KT P6SM BKN015
KMGE 
47nm SW 
091400Z 0914/1020 26006KT 8000 BR VCSH BKN016 OVC024 QNH3011INS BECMG 0916/0917 25006KT 4800 -SHRA BR OVC007 QNH3007INS BECMG 0922/0923 08009KT 4800 -DZ BR OVC006 QNH3009INS BECMG 1002/1003 08006KT 3200 BR OVC004 QNH3011INS BECMG 1013/1014 08006KT 4800 BR OVC007 QNH3020INS BECMG 1015/1016 10009KT 8000 BR BKN012 OVC020 QNH3018INS TX18/0919Z TN13/1012Z
NOTAMs
Click for the latest NOTAMs
NOTAMs are issued by the DoD/FAA and will open in a separate window not controlled by AirNav.

 

 
 

FBO, Fuel Providers, and Aircraft Ground Support

  
 Business Name 
 
 Contact 
 
 Services / Description 
 
Fuel Prices
 
Comments
  
Lumpkin County-Wimpy's Airport 706-265-0284
no information available

If you are affiliated with Lumpkin County-Wimpy's Airport and would like to show here your services, contact info, web link, logo, and more, click here
100LL
SS $6.79 
 Updated 01-Dec-2022
 
   1 read write
SS=Self service
Update Fuel Prices
 

Would you like to see your business listed on this page?

 If your business provides an interesting product or service to pilots, flight crews, aircraft, or users of the Lumpkin County-Wimpys Airport, you should consider listing it here.  To start the listing process, click on the button below
 
Add a business
 

Other Pages about Lumpkin County-Wimpys Airport

Update a link
 
Copyright © AirNav, LLC. All rights reserved. Privacy Policy  Contact